Terminal Aerodrome Forecast
Issued by NWS Jackson, MS

Current Version | Previous Version | Text Only | Print | Product List | Glossary On
Versions: 1 2 3 4 5 6 7 8 9 10 11 12 13 14 15 16 17 18
000
FTUS44 KJAN 300847 AAA
TAFGLH
TAF AMD
KGLH 300847Z 3009/3106 25010KT P6SM -RA OVC025
     FM301000 31009KT P6SM VCSH OVC035
     FM301300 01008KT P6SM SCT200=

USA.gov is the U.S. government's official web portal to all federal, state and local government web resources and services.